Time;durP1;ratioP1;P1;durP2;ratioP2;P2;SDS_P1;SDS_P2;PMS_P1;PMS_P2;Temp;Humidity;BMP_temperature;BMP_pressure;BME280_temperature;BME280_humidity;BME280_pressure;Samples;Min_cycle;Max_cycle;Signal;HPM_P1;HPM_P2
2022/10/24 00:01:12;;;;;;;6.10;2.00;;;15.20;99.90;;;;;;4969179;28;20038;-67
2022/10/24 00:03:38;;;;;;;4.75;1.70;;;15.20;99.90;;;;;;4967852;28;20138;-69
2022/10/24 00:06:06;;;;;;;5.90;1.40;;;15.20;99.90;;;;;;4969056;28;20121;-69
2022/10/24 00:08:33;;;;;;;7.30;1.98;;;15.20;99.90;;;;;;4968515;28;20054;-69
2022/10/24 00:10:59;;;;;;;7.75;1.63;;;15.20;99.90;;;;;;4971544;28;20121;-67
2022/10/24 00:13:24;;;;;;;6.50;1.63;;;15.10;99.90;;;;;;4969132;28;20062;-69
2022/10/24 00:15:50;;;;;;;6.00;2.00;;;15.20;99.90;;;;;;4953397;28;20138;-69
2022/10/24 00:18:16;;;;;;;6.35;1.63;;;15.10;99.90;;;;;;4968835;28;20066;-69
2022/10/24 00:20:42;;;;;;;6.00;1.60;;;15.10;99.90;;;;;;4970214;28;20035;-69
2022/10/24 00:23:08;;;;;;;7.68;1.73;;;15.10;99.90;;;;;;4967762;28;20129;-68
2022/10/24 00:25:34;;;;;;;7.18;2.00;;;15.10;99.90;;;;;;4968845;28;20497;-69
2022/10/24 00:28:00;;;;;;;6.75;1.77;;;15.10;99.90;;;;;;4968407;28;20049;-69
2022/10/24 00:30:26;;;;;;;5.95;1.75;;;15.00;99.90;;;;;;4965572;28;20051;-68
2022/10/24 00:32:52;;;;;;;6.78;1.70;;;15.00;99.90;;;;;;4967482;28;20556;-68
2022/10/24 00:35:17;;;;;;;5.68;1.90;;;15.00;99.90;;;;;;4967549;28;20057;-69
2022/10/24 00:37:43;;;;;;;10.32;2.10;;;15.00;99.90;;;;;;4965757;28;20081;-68
2022/10/24 00:40:10;;;;;;;7.32;1.85;;;15.00;99.90;;;;;;4970257;28;20046;-68
2022/10/24 00:42:36;;;;;;;10.73;2.10;;;15.00;99.90;;;;;;4966173;28;20049;-68
2022/10/24 00:45:41;;;;;;;5.68;2.08;;;14.90;99.90;;;;;;4968298;28;20448;-69
2022/10/24 00:48:21;;;;;;;10.32;2.13;;;14.90;99.90;;;;;;4965779;28;20105;-68
2022/10/24 00:50:49;;;;;;;8.98;2.25;;;14.90;99.90;;;;;;4966406;28;20053;-68
2022/10/24 00:53:16;;;;;;;7.00;2.75;;;14.90;99.90;;;;;;4965433;28;20038;-69
2022/10/24 00:55:45;;;;;;;5.53;2.30;;;14.90;99.90;;;;;;4967767;28;20505;-69
2022/10/24 00:58:12;;;;;;;12.93;2.45;;;14.90;99.90;;;;;;4968097;28;20054;-68
2022/10/24 01:00:38;;;;;;;6.28;2.30;;;15.00;99.90;;;;;;4968490;28;20042;-67
2022/10/24 01:03:03;;;;;;;11.85;2.97;;;15.10;99.90;;;;;;4967861;28;20050;-69
2022/10/24 01:05:43;;;;;;;9.40;2.63;;;15.10;99.90;;;;;;4967278;28;20108;-69
2022/10/24 01:08:24;;;;;;;11.07;2.83;;;15.20;99.90;;;;;;4969169;28;20085;-69
2022/10/24 01:11:15;;;;;;;7.90;2.72;;;15.20;99.90;;;;;;4970663;28;20050;-68
2022/10/24 01:13:53;;;;;;;7.57;2.58;;;15.30;99.90;;;;;;4969003;28;20169;-69
2022/10/24 01:16:27;;;;;;;9.32;2.70;;;15.30;99.90;;;;;;4966427;28;20134;-68
2022/10/24 01:19:12;;;;;;;10.82;2.70;;;15.30;99.90;;;;;;4966244;28;20075;-68
2022/10/24 01:21:54;;;;;;;7.07;2.60;;;15.30;99.90;;;;;;4968203;28;20133;-67
2022/10/24 01:24:35;;;;;;;10.48;2.78;;;15.30;99.90;;;;;;4967455;28;20046;-66
2022/10/24 01:27:17;;;;;;;6.90;2.40;;;15.40;99.90;;;;;;4966259;28;20462;-69
2022/10/24 01:29:47;;;;;;;8.75;2.63;;;15.30;99.90;;;;;;4967119;28;20049;-68
2022/10/24 01:32:28;;;;;;;10.38;2.88;;;15.30;99.90;;;;;;4971171;28;20054;-67
2022/10/24 01:35:09;;;;;;;8.85;2.60;;;15.30;99.90;;;;;;4965866;28;20481;-67
2022/10/24 01:37:50;;;;;;;5.80;2.55;;;15.20;99.90;;;;;;4962563;28;20097;-66
2022/10/24 01:40:20;;;;;;;5.72;2.78;;;15.20;99.90;;;;;;4965058;28;20078;-67
2022/10/24 01:42:48;;;;;;;11.70;2.90;;;15.20;99.90;;;;;;4967089;28;20043;-68
2022/10/24 01:45:21;;;;;;;9.93;2.92;;;15.20;99.90;;;;;;4950054;28;20039;-69
2022/10/24 01:47:52;;;;;;;6.75;2.72;;;15.20;99.90;;;;;;4962924;28;20053;-69
2022/10/24 01:50:21;;;;;;;9.32;2.80;;;15.10;99.90;;;;;;4966140;28;20414;-67
2022/10/24 01:52:48;;;;;;;8.52;2.53;;;15.10;99.90;;;;;;4966379;28;20039;-67
2022/10/24 01:55:14;;;;;;;6.40;2.72;;;15.10;99.90;;;;;;4966731;28;20042;-67
2022/10/24 01:57:41;;;;;;;11.88;3.10;;;15.10;99.90;;;;;;4967142;28;20061;-68
2022/10/24 02:00:09;;;;;;;8.43;2.58;;;15.10;99.90;;;;;;4967838;28;20047;-67
2022/10/24 02:02:42;;;;;;;11.30;2.80;;;15.10;99.90;;;;;;4967750;28;20051;-68
2022/10/24 02:05:18;;;;;;;11.60;2.65;;;15.10;99.90;;;;;;4970177;28;20512;-67
2022/10/24 02:07:48;;;;;;;7.78;2.58;;;15.00;99.90;;;;;;4979575;28;20046;-67
2022/10/24 02:10:21;;;;;;;9.20;2.50;;;15.10;99.90;;;;;;4968219;28;20047;-67
2022/10/24 02:12:55;;;;;;;7.30;2.42;;;15.00;99.90;;;;;;4968098;28;20057;-66
2022/10/24 02:15:26;;;;;;;6.93;2.33;;;15.00;99.90;;;;;;4967780;28;20199;-68
2022/10/24 02:17:53;;;;;;;10.73;3.00;;;15.00;99.90;;;;;;4967342;28;20805;-67
2022/10/24 02:20:32;;;;;;;10.30;2.60;;;15.00;99.90;;;;;;4967541;28;20146;-70
2022/10/24 02:23:32;;;;;;;8.40;2.65;;;15.00;99.90;;;;;;4968796;28;20097;-67
2022/10/24 02:26:01;;;;;;;10.07;2.92;;;14.90;99.90;;;;;;4966590;28;20050;-67
2022/10/24 02:28:32;;;;;;;9.15;2.80;;;14.90;99.90;;;;;;4948010;28;20050;-70
2022/10/24 02:31:15;;;;;;;7.70;2.38;;;14.90;99.90;;;;;;4964944;28;20049;-67
2022/10/24 02:33:42;;;;;;;6.97;2.53;;;14.90;99.90;;;;;;4965736;28;20452;-69
2022/10/24 02:36:10;;;;;;;8.00;2.83;;;14.90;99.90;;;;;;4966581;28;20062;-71
2022/10/24 02:38:39;;;;;;;10.05;2.40;;;14.90;99.90;;;;;;4967295;28;20038;-68
2022/10/24 02:41:10;;;;;;;11.20;3.22;;;14.90;99.90;;;;;;4965255;28;20041;-66
2022/10/24 02:43:39;;;;;;;16.13;2.80;;;14.90;99.90;;;;;;4965555;28;20568;-66
2022/10/24 02:46:07;;;;;;;6.57;2.42;;;14.80;99.90;;;;;;4965496;28;20042;-68
2022/10/24 02:48:38;;;;;;;6.22;2.30;;;14.80;99.90;;;;;;4963490;28;20035;-69
2022/10/24 02:51:04;;;;;;;9.77;2.92;;;14.90;99.90;;;;;;4963891;28;20043;-68
2022/10/24 02:53:30;;;;;;;9.38;2.80;;;14.80;99.90;;;;;;4966556;28;20062;-68
2022/10/24 02:55:56;;;;;;;9.98;2.70;;;14.80;99.90;;;;;;4965136;28;20532;-67
2022/10/24 02:58:21;;;;;;;6.47;2.40;;;14.80;99.90;;;;;;4965530;28;20177;-69
2022/10/24 03:00:47;;;;;;;7.85;2.40;;;14.70;99.90;;;;;;4966678;28;20170;-67
2022/10/24 03:03:13;;;;;;;10.13;2.50;;;14.70;99.90;;;;;;4964697;28;20137;-68
2022/10/24 03:05:38;;;;;;;10.27;2.50;;;14.70;99.90;;;;;;4965914;28;20081;-67
2022/10/24 03:08:04;;;;;;;8.48;2.65;;;14.70;99.90;;;;;;4961645;28;20051;-68
2022/10/24 03:10:30;;;;;;;9.77;2.60;;;14.70;99.90;;;;;;4963300;28;20042;-69
2022/10/24 03:12:55;;;;;;;11.57;2.75;;;14.60;99.90;;;;;;4967359;28;20410;-68
2022/10/24 03:15:21;;;;;;;9.25;2.35;;;14.70;99.90;;;;;;4963975;28;20047;-68
2022/10/24 03:17:48;;;;;;;9.48;2.60;;;14.70;99.90;;;;;;4965149;28;20051;-68
2022/10/24 03:20:15;;;;;;;9.82;2.40;;;14.70;99.90;;;;;;4965973;28;20053;-69
2022/10/24 03:22:40;;;;;;;12.05;2.63;;;14.60;99.90;;;;;;4965853;28;20101;-67
2022/10/24 03:25:06;;;;;;;12.75;2.63;;;14.70;99.90;;;;;;4965595;28;20505;-68
2022/10/24 03:27:33;;;;;;;16.17;3.00;;;14.70;99.90;;;;;;4965287;28;20094;-66
2022/10/24 03:29:59;;;;;;;12.13;2.70;;;14.70;99.90;;;;;;4966688;28;20066;-66
2022/10/24 03:32:25;;;;;;;9.70;2.30;;;14.70;99.90;;;;;;4963518;28;20042;-68
2022/10/24 03:34:51;;;;;;;13.40;2.55;;;14.70;99.90;;;;;;4963207;28;20130;-67
2022/10/24 03:37:17;;;;;;;6.93;2.47;;;14.80;99.90;;;;;;4976798;28;20039;-67
2022/10/24 03:39:42;;;;;;;8.57;2.50;;;14.80;99.90;;;;;;4965583;28;20078;-66
2022/10/24 03:42:08;;;;;;;9.25;2.28;;;14.80;99.90;;;;;;4967570;28;20051;-67
2022/10/24 03:44:34;;;;;;;6.72;2.20;;;14.80;99.90;;;;;;4966160;28;20043;-67
2022/10/24 03:46:59;;;;;;;8.75;2.58;;;14.90;99.90;;;;;;4964531;28;20047;-69
2022/10/24 03:49:25;;;;;;;9.07;2.88;;;14.90;99.90;;;;;;4965140;28;20043;-67
2022/10/24 03:51:50;;;;;;;13.00;2.85;;;14.90;99.90;;;;;;4967083;28;20050;-67
2022/10/24 03:54:16;;;;;;;5.90;2.33;;;14.90;99.90;;;;;;4979292;28;20051;-67
2022/10/24 03:56:43;;;;;;;11.68;2.53;;;14.90;99.90;;;;;;4964036;28;20043;-67
2022/10/24 03:59:09;;;;;;;8.23;2.47;;;14.90;99.90;;;;;;4963065;28;20089;-67
2022/10/24 04:01:34;;;;;;;8.38;2.58;;;14.90;99.90;;;;;;4948772;28;20067;-67
2022/10/24 04:04:00;;;;;;;6.72;2.35;;;14.90;99.90;;;;;;4964712;28;20085;-68
2022/10/24 04:06:26;;;;;;;9.45;2.15;;;14.90;99.90;;;;;;4963918;28;20939;-67
2022/10/24 04:08:51;;;;;;;7.28;2.50;;;14.90;99.90;;;;;;4965591;28;20047;-66
2022/10/24 04:11:17;;;;;;;9.90;2.70;;;14.90;99.90;;;;;;4978944;28;20117;-68
2022/10/24 04:13:43;;;;;;;8.07;2.05;;;14.90;99.90;;;;;;4967705;28;20054;-68
2022/10/24 04:16:08;;;;;;;9.27;2.67;;;14.90;99.90;;;;;;4963937;28;20104;-67
2022/10/24 04:18:34;;;;;;;11.20;2.40;;;14.90;99.90;;;;;;4961808;28;20074;-67
2022/10/24 04:21:00;;;;;;;9.43;2.70;;;14.90;99.90;;;;;;4969037;28;20054;-67
2022/10/24 04:23:26;;;;;;;7.43;2.40;;;14.90;99.90;;;;;;4964305;28;20050;-68
2022/10/24 04:25:52;;;;;;;7.05;2.08;;;14.90;99.90;;;;;;4964848;28;20077;-67
2022/10/24 04:28:17;;;;;;;15.82;2.88;;;14.90;99.90;;;;;;4981194;28;20488;-67
2022/10/24 04:30:43;;;;;;;7.70;2.08;;;14.90;99.90;;;;;;4967445;28;20070;-67
2022/10/24 04:33:09;;;;;;;10.77;2.38;;;14.80;99.90;;;;;;4968802;28;20111;-67
2022/10/24 04:35:34;;;;;;;9.20;2.15;;;14.80;99.90;;;;;;4964595;28;20039;-67
2022/10/24 04:38:00;;;;;;;7.78;2.72;;;14.80;99.90;;;;;;4967099;28;20424;-67
2022/10/24 04:40:26;;;;;;;7.13;1.90;;;14.80;99.90;;;;;;4969990;28;20034;-67
2022/10/24 04:42:51;;;;;;;7.45;2.20;;;14.70;99.90;;;;;;4969378;28;20039;-68
2022/10/24 04:45:17;;;;;;;9.70;2.03;;;14.80;99.90;;;;;;4969053;28;20043;-67
2022/10/24 04:47:43;;;;;;;7.50;2.20;;;14.70;99.90;;;;;;4968603;28;20076;-70
2022/10/24 04:50:09;;;;;;;9.63;2.65;;;14.70;99.90;;;;;;4969896;28;20050;-67
2022/10/24 04:52:34;;;;;;;6.75;1.80;;;14.70;99.90;;;;;;4969521;28;20030;-67
2022/10/24 04:55:00;;;;;;;7.32;2.00;;;14.70;99.90;;;;;;4969044;28;20047;-67
2022/10/24 04:57:25;;;;;;;9.50;2.10;;;14.70;99.90;;;;;;4969384;28;20038;-68
2022/10/24 04:59:51;;;;;;;5.68;1.85;;;14.70;99.90;;;;;;4967976;28;20062;-68
2022/10/24 05:02:17;;;;;;;7.63;2.22;;;14.70;99.90;;;;;;4966393;28;20060;-68
2022/10/24 05:04:42;;;;;;;7.85;2.20;;;14.70;99.90;;;;;;4968889;28;20046;-68
2022/10/24 05:07:08;;;;;;;7.65;2.15;;;14.70;99.90;;;;;;4970887;28;20434;-67
2022/10/24 05:09:33;;;;;;;9.90;2.15;;;14.70;99.90;;;;;;4959120;28;20045;-68
2022/10/24 05:12:01;;;;;;;7.68;2.00;;;14.70;99.90;;;;;;4969862;28;20058;-69
2022/10/24 05:14:26;;;;;;;8.02;2.30;;;14.60;99.90;;;;;;4965147;28;20054;-66
2022/10/24 05:16:52;;;;;;;10.52;1.83;;;14.60;99.90;;;;;;4966701;28;20049;-66
2022/10/24 05:19:18;;;;;;;6.18;2.00;;;14.60;99.90;;;;;;4967117;28;20101;-69
2022/10/24 05:21:44;;;;;;;6.47;1.95;;;14.50;99.90;;;;;;4964702;28;20062;-66
2022/10/24 05:24:09;;;;;;;6.07;2.05;;;14.50;99.90;;;;;;4966069;28;20051;-69
2022/10/24 05:26:35;;;;;;;9.13;1.92;;;14.50;99.90;;;;;;4964089;28;20066;-67
2022/10/24 05:29:01;;;;;;;9.10;1.83;;;14.50;99.90;;;;;;4964486;28;20512;-69
2022/10/24 05:31:26;;;;;;;10.48;2.10;;;14.50;99.90;;;;;;4963695;28;20066;-67
2022/10/24 05:33:52;;;;;;;13.23;1.98;;;14.50;99.90;;;;;;4963724;28;20043;-66
2022/10/24 05:36:17;;;;;;;6.97;1.75;;;14.40;99.90;;;;;;4944842;28;20062;-69
2022/10/24 05:38:43;;;;;;;6.32;1.75;;;14.40;99.90;;;;;;4965546;28;20057;-67
2022/10/24 05:41:08;;;;;;;7.70;1.85;;;14.30;99.90;;;;;;4965026;28;20079;-66
2022/10/24 05:43:34;;;;;;;6.93;2.15;;;14.30;99.90;;;;;;4968278;28;20047;-66
2022/10/24 05:46:00;;;;;;;6.85;1.65;;;14.40;99.90;;;;;;4965447;28;20065;-67
2022/10/24 05:48:25;;;;;;;7.82;2.00;;;14.40;99.90;;;;;;4946736;28;20133;-68
2022/10/24 05:50:56;;;;;;;7.88;2.00;;;14.50;99.90;;;;;;4966112;28;20049;-67
2022/10/24 05:53:22;;;;;;;11.07;2.22;;;14.50;99.90;;;;;;4968339;28;20050;-67
2022/10/24 05:55:47;;;;;;;11.07;2.10;;;14.50;99.90;;;;;;4964362;28;20050;-69
2022/10/24 05:58:13;;;;;;;9.00;2.00;;;14.50;99.90;;;;;;4966794;28;20057;-67
2022/10/24 06:00:39;;;;;;;9.60;1.88;;;14.60;99.90;;;;;;4964109;28;20074;-66
2022/10/24 06:03:04;;;;;;;4.55;1.58;;;14.60;99.90;;;;;;4967600;28;20075;-68
2022/10/24 06:05:30;;;;;;;11.38;1.90;;;14.60;99.90;;;;;;4965045;28;20054;-66
2022/10/24 06:07:57;;;;;;;4.72;1.55;;;14.60;99.90;;;;;;4965410;28;20054;-67
2022/10/24 06:10:23;;;;;;;7.78;1.80;;;14.60;99.90;;;;;;4958142;28;20101;-68
2022/10/24 06:12:49;;;;;;;11.32;1.80;;;14.70;99.90;;;;;;4964337;28;20039;-69
2022/10/24 06:15:15;;;;;;;9.80;2.05;;;14.60;99.90;;;;;;4964714;28;20047;-69
2022/10/24 06:17:40;;;;;;;6.38;1.52;;;14.70;99.90;;;;;;4966153;28;20497;-67
2022/10/24 06:20:07;;;;;;;6.45;1.80;;;14.70;99.90;;;;;;4964870;28;20050;-69
2022/10/24 06:22:32;;;;;;;9.13;1.77;;;14.70;99.90;;;;;;4963812;28;20047;-68
2022/10/24 06:24:59;;;;;;;5.97;1.40;;;14.70;99.90;;;;;;4965319;28;20054;-66
2022/10/24 06:27:24;;;;;;;9.10;1.85;;;14.70;99.90;;;;;;4964921;28;20049;-68
2022/10/24 06:29:50;;;;;;;5.70;1.80;;;14.70;99.90;;;;;;4965908;28;20050;-66
2022/10/24 06:32:16;;;;;;;6.50;2.40;;;14.70;99.90;;;;;;4967587;28;20386;-66
2022/10/24 06:34:41;;;;;;;9.60;1.77;;;14.70;99.90;;;;;;4964418;28;20556;-67
2022/10/24 06:37:07;;;;;;;4.93;1.48;;;14.80;99.90;;;;;;4969507;28;20117;-67
2022/10/24 06:39:32;;;;;;;9.00;1.63;;;14.80;99.90;;;;;;4967594;28;20050;-68
2022/10/24 06:41:59;;;;;;;5.80;1.75;;;14.80;99.90;;;;;;4970458;28;20097;-69
2022/10/24 06:44:25;;;;;;;5.93;1.80;;;14.70;99.90;;;;;;4966079;28;20042;-68
2022/10/24 06:46:51;;;;;;;9.10;1.67;;;14.80;99.90;;;;;;4963072;28;20513;-68
2022/10/24 06:49:16;;;;;;;3.85;1.42;;;14.70;99.90;;;;;;4967113;28;20034;-68
2022/10/24 06:51:42;;;;;;;7.57;2.00;;;14.70;99.90;;;;;;4962406;28;20490;-67
2022/10/24 06:54:07;;;;;;;5.93;1.63;;;14.70;99.90;;;;;;4965447;28;20146;-67
2022/10/24 06:56:33;;;;;;;7.68;1.60;;;14.70;99.90;;;;;;4965023;28;20039;-68
2022/10/24 06:58:59;;;;;;;11.00;1.90;;;14.70;99.90;;;;;;4957916;28;20053;-67
2022/10/24 07:01:26;;;;;;;9.93;1.75;;;14.70;99.90;;;;;;4964494;28;20046;-68
2022/10/24 07:03:52;;;;;;;8.65;1.90;;;14.80;99.90;;;;;;4962267;28;20407;-68
2022/10/24 07:06:20;;;;;;;11.60;2.22;;;14.80;99.90;;;;;;4963047;28;20062;-69
2022/10/24 07:08:46;;;;;;;6.50;2.22;;;14.80;99.90;;;;;;4960089;28;20046;-67
2022/10/24 07:11:13;;;;;;;8.25;2.00;;;14.90;99.90;;;;;;4969342;28;20046;-66
2022/10/24 07:13:39;;;;;;;7.65;2.00;;;14.90;99.90;;;;;;4978155;28;20046;-68
2022/10/24 07:16:05;;;;;;;8.02;1.77;;;14.90;99.90;;;;;;4974486;28;20570;-67
2022/10/24 07:18:31;;;;;;;8.73;1.63;;;14.90;99.90;;;;;;4970065;28;20046;-68
2022/10/24 07:21:05;;;;;;;5.97;1.73;;;15.00;99.90;;;;;;4968963;28;20057;-68
2022/10/24 07:23:31;;;;;;;8.07;2.00;;;15.00;99.90;;;;;;4968356;28;20064;-68
2022/10/24 07:26:02;;;;;;;8.18;1.70;;;15.00;99.90;;;;;;4970431;28;20042;-68
2022/10/24 07:28:28;;;;;;;8.55;1.95;;;15.00;99.90;;;;;;4962564;28;20058;-68
2022/10/24 07:30:53;;;;;;;9.63;1.90;;;15.00;99.90;;;;;;4972067;28;20050;-69
2022/10/24 07:33:19;;;;;;;7.20;1.70;;;15.10;99.90;;;;;;4972512;28;20053;-68
2022/10/24 07:35:44;;;;;;;9.95;1.67;;;15.10;99.90;;;;;;4970661;28;20476;-69
2022/10/24 07:38:10;;;;;;;11.32;1.77;;;15.10;99.90;;;;;;4970009;28;20050;-67
2022/10/24 07:40:35;;;;;;;7.60;1.70;;;15.20;99.90;;;;;;4971892;28;20062;-68
2022/10/24 07:43:01;;;;;;;5.88;1.70;;;15.10;99.90;;;;;;4967342;28;20795;-68
2022/10/24 07:45:28;;;;;;;9.68;1.90;;;15.10;99.90;;;;;;4960558;28;20134;-68
2022/10/24 07:47:54;;;;;;;9.75;1.95;;;15.20;99.90;;;;;;4968353;28;20050;-67
2022/10/24 07:50:20;;;;;;;8.95;1.83;;;15.20;99.90;;;;;;4975626;28;20057;-68
2022/10/24 07:52:45;;;;;;;10.80;2.05;;;15.20;99.90;;;;;;4954685;28;20047;-71
2022/10/24 07:55:11;;;;;;;8.48;1.70;;;15.30;99.90;;;;;;4978487;28;20055;-67
2022/10/24 07:57:36;;;;;;;8.23;1.75;;;15.30;99.90;;;;;;4969090;28;20039;-68
2022/10/24 08:00:03;;;;;;;5.65;1.83;;;15.40;99.90;;;;;;4973836;28;20054;-67
2022/10/24 08:02:29;;;;;;;8.00;1.40;;;15.40;99.90;;;;;;4974676;28;20050;-69
2022/10/24 08:04:54;;;;;;;7.78;1.77;;;15.50;99.90;;;;;;4973366;28;20101;-69
2022/10/24 08:07:20;;;;;;;7.90;1.80;;;15.50;99.90;;;;;;4983566;28;20050;-67
2022/10/24 08:09:47;;;;;;;8.32;1.80;;;15.60;99.90;;;;;;4972047;28;20382;-67
2022/10/24 08:12:13;;;;;;;10.02;1.80;;;15.70;99.90;;;;;;4974568;28;20439;-67
2022/10/24 08:14:40;;;;;;;8.52;1.88;;;15.80;99.90;;;;;;4982325;28;20073;-66
2022/10/24 08:17:05;;;;;;;6.82;1.70;;;15.80;99.90;;;;;;4975042;28;20035;-67
2022/10/24 08:19:32;;;;;;;11.60;2.00;;;15.90;99.90;;;;;;4969404;28;20054;-67
2022/10/24 08:21:57;;;;;;;9.70;2.00;;;15.90;99.90;;;;;;4970200;28;20055;-66
2022/10/24 08:24:23;;;;;;;8.77;1.70;;;16.00;99.90;;;;;;4971596;28;20527;-67
2022/10/24 08:30:59;;;;;;;9.93;1.60;;;16.20;99.90;;;;;;4977343;28;20583;-68
2022/10/24 08:33:25;;;;;;;10.55;1.55;;;16.30;99.90;;;;;;4964456;28;20047;-71
2022/10/24 08:35:53;;;;;;;9.23;1.92;;;16.30;99.90;;;;;;4971847;28;20146;-67
2022/10/24 08:38:18;;;;;;;8.80;1.80;;;16.30;99.90;;;;;;4974186;28;20070;-68
2022/10/24 08:40:47;;;;;;;10.50;1.90;;;16.40;99.90;;;;;;4976256;28;20077;-66
2022/10/24 08:43:13;;;;;;;8.05;1.70;;;16.50;99.90;;;;;;4974398;28;20134;-69
2022/10/24 08:45:44;;;;;;;14.85;1.95;;;16.60;99.90;;;;;;4972132;28;20098;-68
2022/10/24 08:48:13;;;;;;;8.68;2.28;;;;;;;;;;4974047;28;20047;-66
2022/10/24 08:50:41;;;;;;;12.00;2.28;;;;;;;;;;4969378;28;20049;-69
2022/10/24 08:53:13;;;;;;;10.52;1.90;;;;;;;;;;4966656;28;20038;-67
2022/10/24 08:55:42;;;;;;;10.20;1.98;;;;;;;;;;4967982;28;20047;-66
2022/10/24 08:58:14;;;;;;;7.65;1.65;;;;;;;;;;4969773;28;20054;-69
2022/10/24 09:00:42;;;;;;;8.17;2.07;;;;;;;;;;4970570;28;20082;-69
2022/10/24 09:03:27;;;;;;;7.63;1.70;;;;;;;;;;4983500;28;20063;-67
2022/10/24 09:05:55;;;;;;;5.90;1.67;;;;;;;;;;4971033;28;20097;-69
2022/10/24 09:08:30;;;;;;;12.05;2.10;;;;;;;;;;4977576;28;20130;-69
2022/10/24 09:11:00;;;;;;;6.00;1.55;;;;;;;;;;4976896;28;20066;-66
2022/10/24 09:13:27;;;;;;;10.32;2.03;;;;;;;;;;4970167;28;20074;-66
2022/10/24 09:15:53;;;;;;;9.00;1.90;;;;;;;;;;4969758;28;20042;-66
2022/10/24 09:18:25;;;;;;;8.48;1.90;;;;;;;;;;4968491;28;20051;-66
2022/10/24 09:20:51;;;;;;;9.13;1.83;;;;;;;;;;4975740;28;20774;-69
2022/10/24 09:23:18;;;;;;;7.13;1.58;;;;;;;;;;4970656;28;20047;-68
2022/10/24 09:25:47;;;;;;;7.55;1.85;;;;;;;;;;4966061;28;20565;-69
2022/10/24 09:28:13;;;;;;;8.43;1.48;;;;;;;;;;4965166;28;20038;-66
2022/10/24 09:30:39;;;;;;;12.25;2.00;;;;;;;;;;4970010;28;20038;-67
2022/10/24 09:33:23;;;;;;;9.93;2.13;;;;;;;;;;4966236;28;20058;-70
2022/10/24 09:35:50;;;;;;;10.35;1.70;;;;;;;;;;4965580;28;20062;-71
2022/10/24 09:38:23;;;;;;;8.70;2.00;;;;;;;;;;4967243;28;20068;-67
2022/10/24 09:40:49;;;;;;;8.07;1.75;;;;;;;;;;4973518;28;20047;-66
2022/10/24 09:43:17;;;;;;;9.15;1.65;;;;;;;;;;4972008;28;20525;-67
2022/10/24 09:45:44;;;;;;;11.30;1.60;;;;;;;;;;4963885;28;20053;-71
2022/10/24 09:48:23;;;;;;;8.88;1.60;;;;;;;;;;4965681;28;20070;-66
2022/10/24 09:50:50;;;;;;;6.30;2.13;;;;;;;;;;4964377;28;20051;-71
2022/10/24 09:53:24;;;;;;;5.07;1.23;;;;;;;;;;4966791;28;20069;-68
2022/10/24 09:55:51;;;;;;;6.72;1.65;;;;;;;;;;4964356;28;20066;-68
2022/10/24 09:58:19;;;;;;;9.35;1.35;;;;;;;;;;4969546;28;20413;-69
2022/10/24 10:00:55;;;;;;;9.10;2.17;;;;;;;;;;4967885;28;20057;-66
2022/10/24 10:03:21;;;;;;;9.05;1.60;;;;;;;;;;4968047;28;20398;-66
2022/10/24 10:05:49;;;;;;;6.18;1.27;;;;;;;;;;4962938;28;20046;-68
2022/10/24 10:08:17;;;;;;;7.00;1.77;;;;;;;;;;4966676;28;20039;-67
2022/10/24 10:10:54;;;;;;;11.00;1.58;;;;;;;;;;4959629;28;20060;-69
2022/10/24 10:13:25;;;;;;;5.15;1.33;;;;;;;;;;4965217;28;20043;-66
2022/10/24 10:15:57;;;;;;;6.25;1.25;;;;;;;;;;4947503;28;20046;-66
2022/10/24 10:18:25;;;;;;;5.97;1.55;;;;;;;;;;4964622;28;20507;-66
2022/10/24 10:21:07;;;;;;;7.50;1.48;;;;;;;;;;4966831;28;20054;-67
2022/10/24 10:23:40;;;;;;;6.18;1.30;;;;;;;;;;4963025;28;20050;-67
2022/10/24 10:26:06;;;;;;;4.13;1.23;;;;;;;;;;4966083;28;20057;-67
2022/10/24 10:28:40;;;;;;;5.68;1.00;;;;;;;;;;4972826;28;20100;-68
2022/10/24 10:31:08;;;;;;;7.55;1.38;;;;;;;;;;4974543;28;20098;-68
2022/10/24 10:33:57;;;;;;;6.47;1.35;;;;;;;;;;4968132;28;20038;-70
2022/10/24 10:36:27;;;;;;;4.18;1.05;;;;;;;;;;4969373;28;20180;-68
2022/10/24 10:39:09;;;;;;;7.50;1.23;;;;;;;;;;4965183;28;20046;-67
2022/10/24 10:41:35;;;;;;;8.50;1.92;;;;;;;;;;4979783;28;20051;-66
2022/10/24 10:44:26;;;;;;;5.57;1.35;;;;;;;;;;4950576;28;20414;-67
2022/10/24 10:46:52;;;;;;;8.40;1.42;;;;;;;;;;4973681;28;20059;-67
2022/10/24 10:49:38;;;;;;;5.60;1.38;;;;;;;;;;4964840;28;20051;-66
2022/10/24 10:52:24;;;;;;;7.20;1.48;;;;;;;;;;4968509;28;20422;-67
2022/10/24 10:54:52;;;;;;;9.63;1.50;;;;;;;;;;4969891;28;20069;-67
2022/10/24 11:02:30;;;;;;;18.08;2.72;;;;;;;;;;5679656;23;20310;-68
2022/10/24 11:04:59;;;;;;;9.23;1.73;;;;;;;;;;4969671;28;20050;-66
2022/10/24 11:07:44;;;;;;;4.93;1.33;;;;;;;;;;4962140;28;20061;-68
2022/10/24 11:10:13;;;;;;;6.72;1.88;;;;;;;;;;4970329;28;20051;-67
2022/10/24 11:12:41;;;;;;;8.88;1.58;;;;;;;;;;4966209;28;20213;-67
2022/10/24 11:15:13;;;;;;;7.47;1.48;;;;;;;;;;4963249;28;20058;-67
2022/10/24 11:17:42;;;;;;;5.43;1.48;;;;;;;;;;4954084;28;20051;-67
2022/10/24 11:20:18;;;;;;;6.70;1.40;;;;;;;;;;4951378;28;20905;-66
2022/10/24 11:22:52;;;;;;;19.40;2.85;;;;;;;;;;4948547;28;20521;-68
2022/10/24 11:25:39;;;;;;;6.57;1.38;;;;;;;;;;4955155;28;20047;-69
2022/10/24 11:28:16;;;;;;;8.88;1.60;;;;;;;;;;4950678;28;20059;-68
2022/10/24 11:30:51;;;;;;;9.57;1.35;;;;;;;;;;4945543;28;20488;-69
2022/10/24 11:33:20;;;;;;;7.97;1.10;;;;;;;;;;4951010;28;20043;-69
2022/10/24 11:35:58;;;;;;;7.43;1.50;;;;;;;;;;4950885;28;20049;-69
2022/10/24 11:38:25;;;;;;;6.05;1.23;;;;;;;;;;4951615;28;20051;-69
2022/10/24 11:40:55;;;;;;;9.52;1.50;;;;;;;;;;4957569;28;20109;-68
2022/10/24 11:43:24;;;;;;;7.25;1.70;;;;;;;;;;4950523;28;20066;-69
2022/10/24 11:45:58;;;;;;;5.47;1.27;;;;;;;;;;4955304;28;20051;-68
2022/10/24 11:48:29;;;;;;;7.50;1.38;;;;;;;;;;4958060;28;20461;-69
2022/10/24 11:51:00;;;;;;;4.90;1.33;;;;;;;;;;4954323;28;20046;-69
2022/10/24 11:53:44;;;;;;;6.82;1.45;;;;;;;;;;4952847;28;20519;-69
2022/10/24 11:56:29;;;;;;;5.82;1.23;;;;;;;;;;4950195;28;20046;-68
2022/10/24 11:59:04;;;;;;;7.38;1.23;;;;;;;;;;4964597;28;20051;-69
2022/10/24 12:01:49;;;;;;;8.98;1.60;;;;;;;;;;4953509;28;20515;-68
2022/10/24 12:04:34;;;;;;;8.95;1.35;;;;;;;;;;4950802;28;20054;-68
2022/10/24 12:07:06;;;;;;;7.03;1.50;;;;;;;;;;4952395;28;20047;-68
2022/10/24 12:10:04;;;;;;;7.25;1.40;;;;;;;;;;4947973;28;20058;-68
2022/10/24 12:12:34;;;;;;;14.93;1.50;;;;;;;;;;4949468;28;20050;-71
2022/10/24 12:15:15;;;;;;;6.10;1.00;;;;;;;;;;4953807;28;20062;-69
2022/10/24 12:18:00;;;;;;;4.55;1.30;;;;;;;;;;4955429;28;20043;-68
2022/10/24 12:20:26;;;;;;;6.72;1.00;;;;;;;;;;4941129;28;20055;-69
2022/10/24 12:22:53;;;;;;;6.13;1.45;;;;;;;;;;4952476;28;20058;-68
2022/10/24 12:25:21;;;;;;;7.60;1.40;;;;;;;;;;4954289;28;20428;-67
2022/10/24 12:28:14;;;;;;;5.97;1.40;;;;;;;;;;4959088;28;20055;-67
2022/10/24 12:30:40;;;;;;;6.93;1.30;;;;;;;;;;4949150;28;20055;-69
2022/10/24 12:33:25;;;;;;;9.63;1.27;;;;;;;;;;4947422;28;20043;-68
2022/10/24 12:35:56;;;;;;;8.40;1.48;;;;;;;;;;4951123;28;20051;-68
2022/10/24 12:38:28;;;;;;;4.47;1.20;;;;;;;;;;4955742;28;20039;-68
2022/10/24 12:40:58;;;;;;;9.38;1.60;;;;;;;;;;4948589;28;20051;-69
2022/10/24 12:43:29;;;;;;;8.38;1.13;;;;;;;;;;4952608;28;20451;-68
2022/10/24 12:45:59;;;;;;;6.88;1.60;;;;;;;;;;4950107;28;20074;-69
2022/10/24 12:48:31;;;;;;;4.10;1.25;;;;;;;;;;4959205;28;20063;-68
2022/10/24 12:51:01;;;;;;;6.45;1.42;;;;;;;;;;4950074;28;20046;-69
2022/10/24 12:53:53;;;;;;;5.90;1.05;;;;;;;;;;4956783;28;20046;-69
2022/10/24 12:56:19;;;;;;;3.47;0.90;;;;;;;;;;4945051;28;20039;-69
2022/10/24 12:58:55;;;;;;;6.07;1.40;;;;;;;;;;4947616;28;20047;-68
2022/10/24 13:01:28;;;;;;;7.22;1.63;;;;;;;;;;4949980;28;20134;-68
2022/10/24 13:03:54;;;;;;;7.65;1.83;;;;;;;;;;4942747;28;20087;-68
2022/10/24 13:06:39;;;;;;;12.00;1.85;;;;;;;;;;4953951;28;20039;-68
2022/10/24 13:09:10;;;;;;;9.50;1.90;;;;;;;;;;4938269;28;20512;-70
2022/10/24 13:11:43;;;;;;;8.93;1.52;;;;;;;;;;4948256;28;20509;-70
2022/10/24 13:17:43;;;;;;;6.18;1.23;;;;;;;;;;4953803;28;20038;-69
2022/10/24 13:20:15;;;;;;;5.68;1.05;;;;;;;;;;4939623;28;20101;-69
2022/10/24 13:22:42;;;;;;;5.50;1.00;;;;;;;;;;4956746;28;20043;-69
2022/10/24 13:25:28;;;;;;;9.43;1.42;;;;;;;;;;4955233;28;22710;-68
2022/10/24 13:28:13;;;;;;;9.48;1.00;;;;;;;;;;4941998;28;20047;-68
2022/10/24 13:30:39;;;;;;;5.13;1.15;;;;;;;;;;4947819;28;20055;-68
2022/10/24 13:33:24;;;;;;;4.25;1.30;;;;;;;;;;4944000;28;20406;-67
2022/10/24 13:35:50;;;;;;;46.13;10.18;;;;;;;;;;4941731;28;20051;-69
2022/10/24 13:38:16;;;;;;;4.07;1.00;;;;;;;;;;4946738;28;20187;-69
2022/10/24 13:40:43;;;;;;;4.72;1.20;;;;;;;;;;4940474;28;20133;-69
2022/10/24 13:43:18;;;;;;;4.45;1.13;;;;;;;;;;4946904;28;20082;-68
2022/10/24 13:45:51;;;;;;;3.50;0.90;;;;;;;;;;4945704;28;20182;-69
2022/10/24 13:48:21;;;;;;;4.25;1.00;;;;;;;;;;4948475;28;20094;-69